Latest Coastal Weather Observations for Mornington Island Airport

IDQ60701

Issued at 11:42 pm EST Wednesday 10 August 2022 (issued every 10 minutes, with the page automatically refreshed every 10 minutes)

About coastal observations | Map of coastal stations | Coastal observations for QLD | Marine services | Other Formats
Station Details ID: 029182 Name: MORNINGTON ISLAND AIRPORT Lat: -16.66 Lon: 139.17 Height: 9.52 m
Data from the previous 72 hours. | See also: Recent months at Mornington Island Airport
Date/Time
EST
Wind Sea
Height
m
Swell Vis
km
Cloud Weather Temp
°C
Press
MSL
hPa
Rain since
9am
mm
Dir  Spd
kts
Gust
kts
Height
m
Period
s
Dir
10/11:30pm CALM 0 0 - - - - 10 Clear - 19.7 1015.3 0.0
10/11:00pm CALM 0 0 - - - - 10 - - 19.4 1015.4 0.0
10/10:30pm CALM 0 0 - - - - 10 - - 19.8 1015.6 0.0
10/10:00pm CALM 0 0 - - - - 10 - - 19.5 1015.4 0.0
10/09:30pm CALM 0 0 - - - - 10 - - 20.0 1015.4 0.0
10/09:00pm CALM 0 0 - - - - 10 - - 20.4 1015.3 0.0
10/08:30pm WNW 4 5 - - - - 10 - - 21.0 1015.2 0.0
10/08:00pm WNW 3 4 - - - - 10 - - 21.0 1014.9 0.0
10/07:30pm WNW 4 5 - - - - 10 - - 21.9 1014.5 0.0
10/07:00pm WNW 3 4 - - - - 10 - - 22.4 1014.2 0.0
10/06:30pm WNW 6 7 - - - - 10 - - 23.1 1014.0 0.0
10/06:00pm W 6 8 - - - - 10 - - 24.1 1013.6 0.0
10/05:30pm SW 9 12 - - - - 10 - - 24.5 1013.3 0.0
10/05:00pm NE 6 9 - - - - 10 - - 27.2 1012.9 0.0
10/04:30pm NNE 10 14 - - - - 10 - - 27.4 1012.7 0.0
10/04:00pm N 11 15 - - - - 10 Partly cloudy - 26.7 1012.5 0.0
10/03:30pm N 11 15 - - - - 10 Partly cloudy - 26.8 1012.5 0.0
10/03:00pm N 10 14 - - - - 10 Partly cloudy - 27.7 1012.8 0.0
10/02:30pm N 11 16 - - - - 10 Partly cloudy - 28.0 1013.3 0.0
10/02:00pm NE 5 10 - - - - 10 Partly cloudy - 27.0 1013.9 0.0
10/01:30pm ENE 8 13 - - - - 10 Partly cloudy - 27.7 1014.2 0.0
10/01:00pm ENE 10 14 - - - - 10 Partly cloudy - 26.9 1014.6 0.0
10/12:30pm NE 11 17 - - - - 10 Partly cloudy - 28.1 1014.9 0.0
10/12:00pm NE 12 18 - - - - 10 Mostly cloudy - 27.5 1015.3 0.0
10/11:30am NE 12 16 - - - - 10 Partly cloudy - 26.9 1015.6 0.0
10/11:00am ENE 10 16 - - - - 10 Partly cloudy - 26.7 1015.9 0.0
10/10:30am NE 11 15 - - - - 10 Partly cloudy - 26.8 1016.1 0.0
10/10:00am E 8 11 - - - - 10 - - 26.1 1016.1 0.0
10/09:30am ESE 8 11 - - - - 10 Partly cloudy - 24.7 1016.1 0.0
10/09:00am ESE 10 15 - - - - 10 - - 24.1 1015.8 0.0
10/08:30am ESE 10 16 - - - - 10 - - 23.4 1015.3 0.0
10/08:00am ESE 10 14 - - - - 10 - - 22.4 1015.0 0.0
10/07:30am ESE 11 14 - - - - 10 - - 21.7 1014.5 0.0
10/07:00am SE 11 15 - - - - 10 - - 21.4 1014.1 0.0
10/06:30am SE 10 16 - - - - 10 - - 21.5 1013.8 0.0
10/06:00am SE 9 14 - - - - 10 - - 21.5 1013.5 0.0
10/05:30am SE 9 13 - - - - 10 - - 21.5 1013.2 0.0
10/05:00am SE 9 14 - - - - 10 - - 21.8 1013.1 0.0
10/04:30am SE 9 12 - - - - 10 - - 21.7 1012.8 0.0
10/04:00am SE 8 11 - - - - 10 - - 21.2 1013.0 0.0
10/03:30am SE 6 9 - - - - 10 - - 20.3 1013.2 0.0
10/03:00am SSE 5 7 - - - - 10 - - 20.1 1013.4 0.0
10/02:30am SSE 5 8 - - - - 10 - - 20.0 1013.5 0.0
10/02:00am SE 5 6 - - - - 10 - - 19.8 1013.5 0.0
10/01:30am SE 3 5 - - - - 10 - - 19.7 1013.7 0.0
10/01:00am SE 4 5 - - - - 10 - - 19.7 1013.9 0.0
10/12:30am SE 5 6 - - - - 10 - - 19.8 1014.0 0.0
10/12:00am SE 5 7 - - - - 10 - - 19.9 1014.0 0.0
 
Date/Time
EST
Wind Sea
Height
m
Swell Vis
km
Cloud Weather Temp
°C
Press
MSL
hPa
Rain since
9am
mm
Dir  Spd
kts
Gust
kts
Height
m
Period
s
Dir
09/11:30pm ESE 5 6 - - - - 10 - - 18.9 1013.9 0.0
09/11:00pm ESE 4 5 - - - - 10 - - 19.5 1014.0 0.0
09/10:30pm ESE 5 5 - - - - 10 - - 20.0 1014.0 0.0
09/10:00pm ESE 5 6 - - - - 10 - - 20.3 1014.1 0.0
09/09:30pm ESE 5 6 - - - - 10 - - 20.6 1014.3 0.0
09/09:00pm ESE 5 6 - - - - 10 - - 20.8 1014.3 0.0
09/08:30pm E 5 7 - - - - 10 - - 21.2 1014.1 0.0
09/08:00pm ESE 5 6 - - - - 10 - - 21.0 1013.9 0.0
09/07:30pm ESE 5 6 - - - - 10 - - 21.5 1013.6 0.0
09/07:00pm ESE 5 7 - - - - 10 - - 22.3 1013.3 0.0
09/06:30pm ESE 6 7 - - - - 10 - - 23.4 1013.0 0.0
09/06:00pm ESE 5 7 - - - - 10 - - 24.0 1012.8 0.0
09/05:30pm SE 6 8 - - - - 10 - - 24.6 1012.7 0.0
09/05:00pm SE 7 11 - - - - 10 - - 24.7 1012.7 0.0
09/04:30pm SE 7 11 - - - - 10 - - 24.5 1012.7 0.0
09/04:00pm SE 8 13 - - - - 10 - - 24.9 1012.7 0.0
09/03:30pm SSE 9 14 - - - - 10 - - 24.4 1012.8 0.0
09/03:00pm SE 10 14 - - - - 10 - - 23.9 1012.9 0.0
09/02:30pm SSE 10 15 - - - - 10 - - 24.4 1013.2 0.0
09/02:00pm SSE 9 16 - - - - 10 - - 24.4 1013.6 0.0
09/01:30pm SSE 10 15 - - - - 10 - - 23.7 1014.1 0.0
09/01:00pm SSE 10 15 - - - - 10 - - 24.0 1014.4 0.0
09/12:30pm SSE 11 17 - - - - 10 - - 23.1 1014.9 0.0
09/12:00pm SSE 12 16 - - - - 10 - - 22.8 1015.2 0.0
09/11:30am SSE 10 16 - - - - 10 - - 22.9 1015.6 0.0
09/11:00am SSE 11 16 - - - - 10 - - 22.2 1016.0 0.0
09/10:30am SSE 11 17 - - - - 10 - - 22.0 1016.2 0.0
09/10:00am SSE 12 18 - - - - 10 - - 21.6 1016.2 0.0
09/09:30am SE 13 19 - - - - 10 - - 21.5 1016.0 0.0
09/09:00am SE 10 18 - - - - 10 - - 21.1 1015.7 0.0
09/08:30am SE 11 20 - - - - 10 - - 21.1 1015.4 0.0
09/08:00am SE 14 21 - - - - 10 - - 20.7 1014.8 0.0
09/07:30am SE 14 21 - - - - 10 - - 20.4 1014.5 0.0
09/07:00am SE 14 24 - - - - 10 - - 20.2 1014.1 0.0
09/06:30am SE 11 17 - - - - 10 - - 20.2 1013.9 0.0
09/06:00am SE 13 20 - - - - 10 - - 20.3 1013.7 0.0
09/05:30am SE 13 21 - - - - 10 - - 20.4 1013.6 0.0
09/05:00am SE 14 21 - - - - 10 - - 20.8 1013.6 0.0
09/04:30am SE 13 21 - - - - 10 - - 21.0 1013.7 0.0
09/04:00am SE 14 20 - - - - 10 - - 21.2 1013.7 0.0
09/03:30am SE 15 21 - - - - 10 - - 21.4 1013.8 0.0
09/03:00am SSE 15 25 - - - - 10 - - 21.8 1013.9 0.0
09/02:56am SSE 15 25 - - - - 10 - - 21.8 1014.0 0.0
09/02:30am SSE 14 23 - - - - 10 - - 22.0 1014.1 0.0
09/02:00am SSE 16 29 - - - - 10 - - 22.5 1014.4 0.0
09/01:37am SSE 15 28 - - - - 10 - - 22.7 1014.5 0.0
09/01:30am SSE 15 23 - - - - 10 - - 22.6 1014.5 0.0
09/01:00am SSE 15 24 - - - - 10 - - 22.9 1014.5 0.0
09/12:30am SSE 13 20 - - - - 10 - - 23.2 1014.6 0.0
09/12:00am SSE 12 19 - - - - 10 - - 23.3 1014.5 0.0
 
Date/Time
EST
Wind Sea
Height
m
Swell Vis
km
Cloud Weather Temp
°C
Press
MSL
hPa
Rain since
9am
mm
Dir  Spd
kts
Gust
kts
Height
m
Period
s
Dir
08/11:30pm SSE 12 20 - - - - 10 - - 23.6 1014.6 0.0
08/11:00pm SSE 12 20 - - - - 10 - - 23.9 1014.7 0.0
08/10:30pm SSE 12 19 - - - - 10 - - 24.1 1014.9 0.0
08/10:00pm SSE 8 13 - - - - 10 - - 23.6 1014.9 0.0
08/09:30pm SSE 7 9 - - - - 10 - - 22.7 1014.7 0.0
08/09:00pm SSE 5 8 - - - - 10 - - 22.4 1014.6 0.0
08/08:30pm SSE 5 6 - - - - 10 - - 22.2 1014.3 0.0
08/08:00pm SE 5 8 - - - - 10 - - 22.9 1013.9 0.0
08/07:30pm SE 5 6 - - - - 10 - - 23.0 1013.6 0.0
08/07:00pm ESE 5 6 - - - - 10 - - 23.8 1013.4 0.0
08/06:30pm SE 6 7 - - - - 10 - - 24.7 1013.1 0.0
08/06:00pm SE 7 10 - - - - 10 - - 26.0 1012.9 0.0
08/05:30pm SE 8 11 - - - - 10 - - 26.9 1012.8 0.0
08/05:00pm SE 8 13 - - - - 10 - - 27.2 1012.7 0.0
08/04:30pm SE 9 14 - - - - 10 - - 27.2 1012.8 0.0
08/04:00pm SE 10 16 - - - - 10 - - 27.1 1012.8 0.0
08/03:30pm SE 12 18 - - - - 10 - - 27.2 1012.9 0.0
08/03:00pm SE 11 17 - - - - 10 - - 26.4 1013.2 0.0
08/02:30pm SE 11 17 - - - - 10 - - 26.1 1013.7 0.0
08/02:00pm SE 11 17 - - - - 10 - - 26.1 1013.9 0.0
08/01:30pm SE 11 16 - - - - 10 - - 25.7 1014.5 0.0
08/01:00pm SSE 13 20 - - - - 10 - - 24.7 1015.0 0.0
08/12:30pm SE 13 20 - - - - 10 - - 24.5 1015.2 0.0
08/12:00pm SE 14 25 - - - - 10 - - 23.8 1015.7 0.0
08/11:55am SE 15 25 - - - - 10 - - 23.2 1015.8 0.0
08/11:30am SE 13 22 - - - - 10 - - 23.5 1016.0 0.0
08/11:00am SE 14 23 - - - - 10 - - 23.3 1016.2 0.0
08/10:30am SE 15 24 - - - - 10 - - 23.1 1016.4 0.0
08/10:00am SE 16 24 - - - - 10 - - 22.7 1016.6 0.0
08/09:32am SE 15 25 - - - - 10 - - 22.7 1016.5 0.0
08/09:30am SE 15 23 - - - - 10 - - 22.5 1016.5 0.0
08/09:20am SE 15 25 - - - - 10 - - 22.5 1016.3 0.0
08/09:00am SE 15 23 - - - - 10 - - 22.5 1016.1 0.0
08/08:30am SE 14 23 - - - - 10 - - 22.2 1015.9 0.0
08/08:05am SE 16 27 - - - - 10 - - 22.0 1015.5 0.0
08/08:00am SE 14 23 - - - - 10 - - 21.9 1015.5 0.0
08/07:31am SE 15 25 - - - - 10 - - 21.7 1015.2 0.0
08/07:30am SE 14 25 - - - - 10 - - 21.7 1015.2 0.0
08/07:28am SE 15 25 - - - - 10 - - 21.7 1015.2 0.0
08/07:00am SE 15 22 - - - - 10 - - 21.7 1014.8 0.0
08/06:42am SE 15 25 - - - - 10 - - 21.8 1014.7 0.0
08/06:30am SE 13 21 - - - - 10 - - 21.8 1014.6 0.0
08/06:00am SE 13 20 - - - - 10 - - 21.8 1014.3 0.0
08/05:30am SE 13 18 - - - - 10 - - 21.9 1014.0 0.0
08/05:00am SSE 13 22 - - - - 10 - - 22.1 1013.8 0.0
08/04:30am SE 14 22 - - - - 10 - - 22.4 1013.6 0.0
08/04:00am SE 13 21 - - - - 10 - - 22.6 1013.5 0.0
08/03:30am SE 12 21 - - - - 10 - - 22.8 1013.7 0.0
08/03:00am SE 13 21 - - - - 10 - - 23.1 1013.9 0.0
08/02:30am SSE 12 21 - - - - 10 - - 23.3 1013.9 0.0
08/02:00am SE 12 17 - - - - 10 - - 23.5 1014.0 0.0
08/01:30am SSE 11 18 - - - - 10 - - 23.7 1014.2 0.0
08/01:00am SSE 12 18 - - - - 10 - - 23.9 1014.3 0.0
08/12:30am SSE 13 25 - - - - 10 - - 24.2 1014.5 0.0
08/12:00am SSE 11 20 - - - - 10 - - 24.1 1014.6 0.0

Other formats

Comma delimited format used in spreadsheet applications
http://www.bom.gov.au/fwo/IDQ60701/IDQ60701.94254.axf

JavaScript Object Notation format (JSON) in row-major order
http://www.bom.gov.au/fwo/IDQ60701/IDQ60701.94254.json

Data quality

Most of these data are generated automatically and are frequently updated. Quality checks on data are not normally performed. It is possible for incorrect values to appear. Refer to information at About Latest Weather Observations and please check the disclaimer before using these data.